Sanhu Dao, China
Current Conditions -  °F | °C
As of 1:00 AM on Saturday 01 Nov 2014 (Local Time) from ZJSY Reporting Station
Broken Clouds Broken Clouds  
Wind Chill: 79°   Ceiling: 5000
Heat Index: 82°   Visibility: 6mi
Dew Point: 73°   Wind: 7mph
Humidity: 83%   Direction: 80°E
Pressure: 29.88"   Gusts: NA
Location:  16.53°N, 111.62°E
Report Text: ZJSY 311700Z 08003MPS 9999 BKN050 26/23 Q1012 NOSIG
Loading
Personal Weather Stations






























Interactive Weather Map
Tropical Storm Tracking
New forecast layout! Learn more

10-Day Weather Forecast

Advertisements
Track Severe Weather on mobile